createdAt,value
2018-12-20T00:00:05.924Z,27.63
2018-12-20T00:02:36.898Z,27.20
2018-12-20T00:05:05.844Z,27.90
2018-12-20T00:07:39.113Z,25.80
2018-12-20T00:10:13.577Z,26.97
2018-12-20T00:12:44.676Z,25.87
2018-12-20T00:15:16.507Z,24.00
2018-12-20T00:17:48.635Z,27.13
2018-12-20T00:20:28.773Z,26.10
2018-12-20T00:23:02.204Z,25.10
2018-12-20T00:25:32.881Z,28.53
2018-12-20T00:28:03.436Z,28.43
2018-12-20T00:30:32.517Z,28.50
2018-12-20T00:33:03.814Z,27.13
2018-12-20T00:35:42.027Z,23.90
2018-12-20T00:38:13.193Z,24.97
2018-12-20T00:40:44.917Z,25.33
2018-12-20T00:43:13.593Z,27.53
2018-12-20T00:45:54.209Z,25.17
2018-12-20T00:48:25.339Z,24.53
2018-12-20T00:50:56.548Z,27.83
2018-12-20T00:53:27.810Z,27.60
2018-12-20T00:56:05.870Z,26.30
2018-12-20T00:58:39.528Z,26.97
2018-12-20T01:01:11.008Z,26.70
2018-12-20T01:03:45.645Z,25.03
2018-12-20T01:06:14.959Z,28.27
2018-12-20T01:08:52.953Z,25.93
2018-12-20T01:11:26.899Z,27.70
2018-12-20T01:13:56.311Z,25.17
2018-12-20T01:16:37.117Z,29.87
2018-12-20T01:19:07.694Z,29.77
2018-12-20T01:21:36.697Z,25.13
2018-12-20T01:24:08.147Z,28.37
2018-12-20T01:26:41.651Z,25.77
2018-12-20T01:29:12.721Z,27.07
2018-12-20T01:31:46.554Z,29.97
2018-12-20T01:34:17.111Z,26.57
2018-12-20T01:36:46.159Z,25.93
2018-12-20T01:39:22.669Z,24.40
2018-12-20T01:41:53.349Z,25.40
2018-12-20T01:44:27.310Z,26.40
2018-12-20T01:46:58.713Z,24.03
2018-12-20T01:49:34.085Z,24.23
2018-12-20T01:52:02.955Z,26.20
2018-12-20T01:54:34.221Z,22.97
2018-12-20T01:57:14.896Z,23.50
2018-12-20T02:02:52.039Z,23.00
2018-12-20T02:05:27.858Z,24.77
2018-12-20T02:08:00.019Z,24.03
2018-12-20T02:13:24.541Z,23.47
2018-12-20T02:15:55.319Z,27.00
2018-12-20T02:18:33.231Z,24.53
2018-12-20T02:21:04.600Z,20.30
2018-12-20T02:23:35.591Z,23.47
2018-12-20T02:26:06.728Z,21.53
2018-12-20T02:28:37.485Z,20.47
2018-12-20T02:31:10.828Z,25.10
2018-12-20T02:33:44.557Z,25.60
2018-12-20T02:36:15.838Z,22.00
2018-12-20T02:38:46.854Z,22.20
2018-12-20T02:41:18.304Z,22.43
2018-12-20T02:43:49.355Z,22.57
2018-12-20T02:46:25.336Z,26.87
2018-12-20T02:48:54.770Z,27.47
2018-12-20T02:51:32.893Z,24.87
2018-12-20T02:54:06.463Z,23.60
2018-12-20T02:56:39.960Z,26.87
2018-12-20T02:59:11.157Z,26.43
2018-12-20T03:01:41.897Z,29.27
2018-12-20T03:04:16.276Z,29.33
2018-12-20T03:06:46.104Z,29.30
2018-12-20T03:09:16.949Z,30.20
2018-12-20T03:11:48.074Z,30.60
2018-12-20T03:14:31.068Z,29.33
2018-12-20T03:17:01.959Z,31.73
2018-12-20T03:19:40.098Z,33.83
2018-12-20T03:22:13.734Z,32.70
2018-12-20T03:24:45.076Z,33.43
2018-12-20T03:27:22.878Z,33.27
2018-12-20T03:29:54.046Z,35.90
2018-12-20T03:32:25.268Z,36.23
2018-12-20T03:34:56.442Z,41.83
2018-12-20T03:37:34.293Z,33.20
2018-12-20T03:40:07.506Z,36.23
2018-12-20T03:42:38.395Z,36.27
2018-12-20T03:45:16.278Z,35.57
2018-12-20T03:47:46.668Z,33.23
2018-12-20T03:50:18.379Z,32.93
2018-12-20T03:52:51.855Z,33.87
2018-12-20T03:55:23.351Z,32.83
2018-12-20T03:57:57.613Z,37.93
2018-12-20T04:00:30.938Z,33.03
2018-12-20T04:03:00.511Z,34.63
2018-12-20T04:05:31.690Z,32.80
2018-12-20T04:08:09.690Z,32.97
2018-12-20T04:10:40.801Z,36.00
2018-12-20T04:13:12.103Z,35.20
2018-12-20T04:15:43.575Z,33.97
2018-12-20T04:18:21.519Z,32.27
2018-12-20T04:20:52.871Z,35.23
2018-12-20T04:23:24.279Z,36.20
2018-12-20T04:26:02.005Z,34.47
2018-12-20T04:28:32.873Z,32.30
2018-12-20T04:31:06.459Z,31.70
2018-12-20T04:33:40.532Z,28.83
2018-12-20T04:36:11.755Z,31.17
2018-12-20T04:38:45.709Z,29.83
2018-12-20T04:41:16.554Z,33.67
2018-12-20T04:43:47.648Z,34.27
2018-12-20T04:46:28.168Z,35.03
2018-12-20T04:49:06.243Z,28.63
2018-12-20T04:51:37.704Z,32.07
2018-12-20T04:54:18.092Z,35.67
2018-12-20T04:56:48.963Z,34.47
2018-12-20T04:59:18.053Z,30.77
2018-12-20T05:01:52.108Z,34.80
2018-12-20T05:04:25.873Z,34.83
2018-12-20T05:06:56.835Z,32.63
2018-12-20T05:09:27.988Z,37.47
2018-12-20T05:11:59.488Z,35.57
2018-12-20T05:14:30.693Z,35.87
2018-12-20T05:17:06.155Z,35.13
2018-12-20T05:19:35.012Z,34.37
2018-12-20T05:22:04.010Z,34.77
2018-12-20T05:24:41.101Z,33.50
2018-12-20T05:27:10.224Z,36.03
2018-12-20T05:29:41.399Z,32.13
2018-12-20T05:32:10.485Z,30.27
2018-12-20T05:34:51.317Z,29.83
2018-12-20T05:37:20.412Z,25.87
2018-12-20T05:39:54.580Z,25.23
2018-12-20T05:42:23.544Z,21.87
2018-12-20T05:44:56.925Z,23.70
2018-12-20T05:47:32.949Z,21.73
2018-12-20T05:50:04.496Z,18.97
2018-12-20T05:52:35.024Z,19.50
2018-12-20T05:55:13.196Z,17.17
2018-12-20T05:57:44.596Z,18.30
2018-12-20T06:00:18.161Z,17.27
2018-12-20T06:02:49.215Z,18.03
2018-12-20T06:05:20.630Z,15.57
2018-12-20T06:07:55.098Z,16.90
2018-12-20T06:10:26.361Z,16.57
2018-12-20T06:12:57.677Z,16.97
2018-12-20T06:15:27.009Z,13.97
2018-12-20T06:18:04.449Z,15.20
2018-12-20T06:20:35.799Z,15.03
2018-12-20T06:23:07.649Z,15.67
2018-12-20T06:25:36.691Z,12.60
2018-12-20T06:28:07.922Z,13.20
2018-12-20T06:30:45.813Z,16.37
2018-12-20T06:33:19.813Z,12.00
2018-12-20T06:35:51.010Z,14.13
2018-12-20T06:38:28.833Z,15.27
2018-12-20T06:40:57.824Z,13.87
2018-12-20T06:43:26.830Z,14.60
2018-12-20T06:45:57.905Z,13.80
2018-12-20T06:48:26.993Z,13.67
2018-12-20T06:51:05.314Z,15.23
2018-12-20T06:53:38.901Z,15.40
2018-12-20T06:56:09.749Z,17.20
2018-12-20T06:58:40.464Z,14.60
2018-12-20T07:01:11.672Z,15.70
2018-12-20T07:03:45.573Z,15.63
2018-12-20T07:06:17.054Z,14.57
2018-12-20T07:08:47.966Z,15.27
2018-12-20T07:11:19.633Z,15.17
2018-12-20T07:13:50.272Z,16.27
2018-12-20T07:16:29.297Z,15.80
2018-12-20T07:18:58.491Z,16.10
2018-12-20T07:21:29.773Z,19.83
2018-12-20T07:24:04.373Z,18.93
2018-12-20T07:26:37.777Z,16.53
2018-12-20T07:29:11.929Z,16.40
2018-12-20T07:31:43.269Z,14.73
2018-12-20T07:34:13.962Z,14.00
2018-12-20T07:36:51.705Z,14.67
2018-12-20T07:39:22.859Z,17.13
2018-12-20T07:41:51.933Z,16.60
2018-12-20T07:44:21.320Z,15.53
2018-12-20T07:46:59.227Z,16.10
2018-12-20T07:49:30.042Z,11.93
2018-12-20T07:52:01.032Z,13.10
2018-12-20T07:54:31.945Z,12.67
2018-12-20T07:57:10.617Z,13.37
2018-12-20T07:59:44.186Z,13.97
2018-12-20T08:02:15.389Z,16.13
2018-12-20T08:04:53.057Z,15.40
2018-12-20T08:10:03.128Z,12.70
2018-12-20T08:12:34.221Z,10.57
2018-12-20T08:15:03.694Z,13.33
2018-12-20T08:17:34.165Z,15.90
2018-12-20T08:20:06.345Z,16.93
2018-12-20T08:22:37.396Z,14.27
2018-12-20T08:25:10.945Z,14.23
2018-12-20T08:27:41.879Z,12.57
2018-12-20T08:30:12.978Z,13.63
2018-12-20T08:32:48.736Z,13.20
2018-12-20T08:35:19.841Z,12.57
2018-12-20T08:37:57.712Z,12.13
2018-12-20T08:40:31.810Z,14.07
2018-12-20T08:43:02.954Z,14.67
2018-12-20T08:45:37.705Z,13.77
2018-12-20T08:48:09.013Z,12.43
2018-12-20T08:50:45.402Z,13.33
2018-12-20T08:53:16.457Z,11.93
2018-12-20T08:55:50.745Z,12.57
2018-12-20T08:58:21.804Z,18.27
2018-12-20T09:00:50.838Z,16.57
2018-12-20T09:03:19.959Z,21.20
2018-12-20T09:05:51.228Z,24.37
2018-12-20T09:08:23.177Z,20.60
2018-12-20T09:10:55.341Z,19.03
2018-12-20T09:13:24.201Z,17.80
2018-12-20T09:15:55.180Z,16.63
2018-12-20T09:18:26.149Z,15.87
2018-12-20T09:21:00.758Z,19.57
2018-12-20T09:23:31.310Z,20.23
2018-12-20T09:26:00.829Z,24.23
2018-12-20T09:28:38.601Z,21.43
2018-12-20T09:31:09.525Z,21.83
2018-12-20T09:33:43.957Z,20.93
2018-12-20T09:36:20.771Z,18.23
2018-12-20T09:38:51.390Z,25.93
2018-12-20T09:41:27.430Z,23.27
2018-12-20T09:43:58.391Z,26.43
2018-12-20T09:46:27.288Z,23.03
2018-12-20T09:49:02.301Z,18.00
2018-12-20T09:51:33.045Z,31.53
2018-12-20T09:54:10.676Z,43.97
2018-12-20T09:56:41.181Z,20.03
2018-12-20T09:59:19.051Z,17.10
2018-12-20T10:01:47.740Z,15.67
2018-12-20T10:04:16.812Z,16.23
2018-12-20T10:06:47.814Z,15.60
2018-12-20T10:09:16.821Z,21.37
2018-12-20T10:11:47.913Z,15.97
2018-12-20T10:14:16.707Z,15.43
2018-12-20T10:16:52.699Z,19.07
2018-12-20T10:19:24.246Z,17.70
2018-12-20T10:21:55.069Z,14.97
2018-12-20T10:24:25.981Z,25.97
2018-12-20T10:27:07.385Z,19.53
2018-12-20T10:29:39.029Z,17.40
2018-12-20T10:32:10.230Z,12.63
2018-12-20T10:34:51.659Z,6.60
2018-12-20T10:37:20.670Z,11.60
2018-12-20T10:39:53.945Z,8.90
2018-12-20T10:42:22.842Z,7.10
2018-12-20T10:44:59.889Z,10.43
2018-12-20T10:47:31.365Z,9.37
2018-12-20T10:50:01.879Z,10.50
2018-12-20T10:52:32.958Z,8.73
2018-12-20T10:55:10.417Z,7.40
2018-12-20T10:57:41.120Z,6.30
2018-12-20T11:00:12.698Z,7.77
2018-12-20T11:02:49.210Z,8.73
2018-12-20T11:05:22.289Z,9.37
2018-12-20T11:07:56.913Z,11.30
2018-12-20T11:10:28.301Z,10.10
2018-12-20T11:13:00.653Z,9.10
2018-12-20T11:15:38.258Z,11.13
2018-12-20T11:18:12.774Z,11.83
2018-12-20T11:20:43.257Z,12.37
2018-12-20T11:23:13.911Z,9.27
2018-12-20T11:25:44.837Z,9.90
2018-12-20T11:28:13.821Z,12.67
2018-12-20T11:30:42.625Z,11.53
2018-12-20T11:33:13.842Z,11.10
2018-12-20T11:35:51.767Z,12.17
2018-12-20T11:38:23.041Z,11.27
2018-12-20T11:40:54.729Z,11.73
2018-12-20T11:43:25.925Z,12.60
2018-12-20T11:45:59.926Z,10.40
2018-12-20T11:48:30.822Z,13.97
2018-12-20T11:51:03.756Z,11.67
2018-12-20T11:53:32.959Z,11.27
2018-12-20T11:56:10.086Z,11.37
2018-12-20T11:58:44.424Z,11.43
2018-12-20T12:01:17.925Z,11.10
2018-12-20T12:03:47.377Z,12.47
2018-12-20T12:06:18.621Z,11.57
2018-12-20T12:08:53.703Z,11.40
2018-12-20T12:11:24.186Z,12.87
2018-12-20T12:13:53.093Z,10.50
2018-12-20T12:16:30.289Z,10.43
2018-12-20T12:19:00.955Z,13.10
2018-12-20T12:21:42.157Z,10.13
2018-12-20T12:24:13.133Z,10.97
2018-12-20T12:26:46.889Z,9.47
2018-12-20T12:29:18.041Z,9.83
2018-12-20T12:31:49.545Z,10.67
2018-12-20T12:34:21.041Z,9.17
2018-12-20T12:36:51.725Z,12.03
2018-12-20T12:39:23.094Z,11.90
2018-12-20T12:41:56.340Z,13.07
2018-12-20T12:44:27.513Z,22.43
2018-12-20T12:46:59.097Z,18.17
2018-12-20T12:49:28.084Z,16.27
2018-12-20T12:51:58.934Z,13.83
2018-12-20T12:54:37.305Z,15.57
2018-12-20T12:57:06.157Z,16.10
2018-12-20T12:59:37.553Z,13.50
2018-12-20T13:02:09.117Z,13.73
2018-12-20T13:04:45.510Z,9.93
2018-12-20T13:07:17.097Z,10.43
2018-12-20T13:09:51.957Z,11.10
2018-12-20T13:12:22.341Z,12.13
2018-12-20T13:14:53.717Z,9.17
2018-12-20T13:17:24.619Z,9.13
2018-12-20T13:19:55.454Z,10.20
2018-12-20T13:22:26.742Z,8.00
2018-12-20T13:24:59.865Z,6.97
2018-12-20T13:27:32.805Z,8.80
2018-12-20T13:30:02.059Z,7.20
2018-12-20T13:32:32.860Z,8.00
2018-12-20T13:35:01.725Z,9.43
2018-12-20T13:37:35.623Z,8.70
2018-12-20T13:40:10.133Z,6.80
2018-12-20T13:42:43.477Z,7.60
2018-12-20T13:45:18.309Z,8.70
2018-12-20T13:47:59.239Z,8.87
2018-12-20T13:50:32.681Z,8.40
2018-12-20T13:53:03.728Z,6.87
2018-12-20T13:55:32.541Z,9.40
2018-12-20T13:58:10.490Z,7.00
2018-12-20T14:00:40.938Z,10.77
2018-12-20T14:03:11.660Z,8.33
2018-12-20T14:05:48.689Z,8.10
2018-12-20T14:08:20.037Z,8.23
2018-12-20T14:10:50.915Z,9.40
2018-12-20T14:13:22.255Z,7.43
2018-12-20T14:16:00.111Z,7.67
2018-12-20T14:18:31.389Z,6.63
2018-12-20T14:21:07.468Z,8.37
2018-12-20T14:23:41.101Z,8.13
2018-12-20T14:26:14.633Z,7.07
2018-12-20T14:28:45.902Z,7.27
2018-12-20T14:31:16.605Z,6.73
2018-12-20T14:33:45.928Z,6.30
2018-12-20T14:36:15.012Z,6.53
2018-12-20T14:38:44.577Z,8.73
2018-12-20T14:41:14.978Z,7.73
2018-12-20T14:43:43.860Z,9.13
2018-12-20T14:46:19.793Z,7.63
2018-12-20T14:48:49.058Z,9.70
2018-12-20T14:51:18.084Z,9.77
2018-12-20T14:53:49.217Z,9.80
2018-12-20T14:56:18.578Z,8.37
2018-12-20T14:58:56.349Z,8.87
2018-12-20T15:01:26.765Z,9.53
2018-12-20T15:04:00.337Z,11.27
2018-12-20T15:06:29.521Z,9.57
2018-12-20T15:08:59.982Z,14.93
2018-12-20T15:11:37.985Z,10.17
2018-12-20T15:14:11.145Z,11.83
2018-12-20T15:16:42.428Z,13.87
2018-12-20T15:19:13.538Z,13.50
2018-12-20T15:21:48.946Z,11.27
2018-12-20T15:24:17.827Z,14.47
2018-12-20T15:26:56.177Z,10.63
2018-12-20T15:29:25.141Z,11.57
2018-12-20T15:31:56.443Z,11.17
2018-12-20T15:34:34.337Z,11.00
2018-12-20T15:37:05.829Z,12.70
2018-12-20T15:39:39.033Z,14.00
2018-12-20T15:42:08.253Z,12.60
2018-12-20T15:44:40.371Z,12.40
2018-12-20T15:47:11.047Z,13.03
2018-12-20T15:49:49.189Z,14.50
2018-12-20T15:52:20.659Z,13.87
2018-12-20T15:55:04.421Z,10.30
2018-12-20T15:57:36.128Z,10.13
2018-12-20T16:00:08.122Z,10.33
2018-12-20T16:02:39.374Z,11.40
2018-12-20T16:05:08.205Z,10.47
2018-12-20T16:07:48.690Z,10.40
2018-12-20T16:10:19.972Z,9.87
2018-12-20T16:12:51.470Z,8.90
2018-12-20T16:15:22.605Z,7.77
2018-12-20T16:17:53.666Z,7.17
2018-12-20T16:20:24.755Z,8.67
2018-12-20T16:22:55.933Z,5.83
2018-12-20T16:25:26.950Z,6.87
2018-12-20T16:27:57.956Z,4.27
2018-12-20T16:30:29.060Z,3.43
2018-12-20T16:33:00.271Z,5.43
2018-12-20T16:35:28.973Z,4.67
2018-12-20T16:38:01.156Z,3.27
2018-12-20T16:40:38.953Z,3.77
2018-12-20T16:43:10.135Z,4.70
2018-12-20T16:45:40.965Z,4.57
2018-12-20T16:48:12.449Z,5.80
2018-12-20T16:50:43.748Z,4.13
2018-12-20T16:53:14.821Z,3.70
2018-12-20T16:55:44.003Z,3.70
2018-12-20T16:58:24.945Z,3.07
2018-12-20T17:00:58.815Z,2.80
2018-12-20T17:03:27.632Z,3.00
2018-12-20T17:06:07.586Z,5.17
2018-12-20T17:08:36.841Z,4.40
2018-12-20T17:11:07.918Z,4.93
2018-12-20T17:13:36.877Z,3.33
2018-12-20T17:16:07.929Z,6.00
2018-12-20T17:18:38.761Z,3.67
2018-12-20T17:21:07.597Z,6.70
2018-12-20T17:23:38.465Z,14.27
2018-12-20T17:26:09.165Z,6.50
2018-12-20T17:28:40.152Z,5.87
2018-12-20T17:31:14.448Z,5.33
2018-12-20T17:33:45.729Z,9.40
2018-12-20T17:36:16.853Z,4.63
2018-12-20T17:38:47.719Z,4.20
2018-12-20T17:41:19.084Z,4.17
2018-12-20T17:43:50.440Z,3.57
2018-12-20T17:46:19.509Z,4.90
2018-12-20T17:48:50.504Z,4.33
2018-12-20T17:51:21.947Z,5.40
2018-12-20T17:53:55.197Z,8.37
2018-12-20T17:56:26.253Z,5.17
2018-12-20T17:58:55.453Z,5.10
2018-12-20T18:01:33.292Z,3.90
2018-12-20T18:04:03.720Z,4.33
2018-12-20T18:06:34.946Z,5.60
2018-12-20T18:09:08.050Z,4.47
2018-12-20T18:11:38.434Z,5.73
2018-12-20T18:14:08.004Z,5.90
2018-12-20T18:16:36.886Z,5.07
2018-12-20T18:19:08.035Z,47.57
2018-12-20T18:21:46.253Z,8.60
2018-12-20T18:24:17.268Z,6.63
2018-12-20T18:26:48.513Z,3.80
2018-12-20T18:29:19.597Z,5.23
2018-12-20T18:31:54.818Z,6.17
2018-12-20T18:34:25.833Z,5.03
2018-12-20T18:36:55.177Z,5.50
2018-12-20T18:39:28.874Z,4.93
2018-12-20T18:41:59.555Z,5.30
2018-12-20T18:44:35.136Z,6.47
2018-12-20T18:47:05.689Z,4.40
2018-12-20T18:49:36.657Z,3.80
2018-12-20T18:52:08.325Z,4.13
2018-12-20T18:54:39.205Z,7.67
2018-12-20T18:57:10.305Z,4.00
2018-12-20T18:59:41.505Z,4.13
2018-12-20T19:02:12.888Z,3.07
2018-12-20T19:04:47.009Z,3.73
2018-12-20T19:07:18.271Z,5.07
2018-12-20T19:09:47.517Z,5.43
2018-12-20T19:12:18.298Z,4.37
2018-12-20T19:14:47.346Z,3.67
2018-12-20T19:17:18.473Z,5.63
2018-12-20T19:19:56.208Z,5.37
2018-12-20T19:22:22.122Z,7.00
2018-12-20T19:24:52.529Z,5.10
2018-12-20T19:33:06.557Z,7.47
2018-12-20T19:35:37.045Z,6.13
2018-12-20T19:38:06.134Z,6.47
2018-12-20T19:40:35.430Z,8.47
2018-12-20T19:43:05.949Z,7.97
2018-12-20T19:45:46.220Z,5.63
2018-12-20T19:48:19.292Z,6.43
2018-12-20T19:50:50.217Z,5.70
2018-12-20T19:53:21.084Z,7.50
2018-12-20T19:55:52.267Z,7.93
2018-12-20T19:58:21.148Z,7.83
2018-12-20T20:00:50.212Z,7.67
2018-12-20T20:03:21.384Z,8.83
2018-12-20T20:05:51.313Z,7.30
2018-12-20T20:08:21.665Z,9.07
2018-12-20T20:10:52.872Z,8.70
2018-12-20T20:13:30.738Z,6.17
2018-12-20T20:15:56.245Z,9.97
2018-12-20T20:18:25.401Z,8.20
2018-12-20T20:20:56.092Z,7.13
2018-12-20T20:23:25.202Z,8.70
2018-12-20T20:26:01.141Z,7.30
2018-12-20T20:28:31.540Z,6.50
2018-12-20T20:31:02.710Z,7.80
2018-12-20T20:33:31.780Z,6.83
2018-12-20T20:36:02.833Z,6.20
2018-12-20T20:38:36.588Z,5.47
2018-12-20T20:41:08.112Z,6.20
2018-12-20T20:43:42.552Z,4.47
2018-12-20T20:46:13.156Z,4.63
2018-12-20T20:48:44.273Z,4.83
2018-12-20T20:51:15.241Z,6.03
2018-12-20T20:53:44.339Z,7.10
2018-12-20T20:56:22.309Z,7.23
2018-12-20T20:58:52.889Z,9.00
2018-12-20T21:01:22.045Z,8.20
2018-12-20T21:03:53.356Z,7.80
2018-12-20T21:06:26.529Z,6.80
2018-12-20T21:08:58.061Z,8.53
2018-12-20T21:11:28.909Z,7.03
2018-12-20T21:13:59.694Z,9.07
2018-12-20T21:16:28.822Z,7.20
2018-12-20T21:19:08.925Z,7.83
2018-12-20T21:21:43.232Z,7.97
2018-12-20T21:24:14.567Z,7.90
2018-12-20T21:26:45.825Z,7.60
2018-12-20T21:29:16.397Z,6.43
2018-12-20T21:31:47.574Z,6.70
2018-12-20T21:34:24.656Z,9.53
2018-12-20T21:36:56.159Z,8.37
2018-12-20T21:39:26.602Z,7.37
2018-12-20T21:41:57.714Z,7.00
2018-12-20T21:44:30.861Z,6.37
2018-12-20T21:47:02.202Z,6.00
2018-12-20T21:49:35.418Z,6.40
2018-12-20T21:52:05.037Z,7.37
2018-12-20T21:54:34.252Z,6.50
2018-12-20T21:57:05.873Z,6.67
2018-12-20T21:59:36.449Z,6.07
2018-12-20T22:02:07.553Z,10.00
2018-12-20T22:04:38.636Z,8.53
2018-12-20T22:07:07.505Z,9.63
2018-12-20T22:09:42.218Z,8.27
2018-12-20T22:12:12.577Z,7.30
2018-12-20T22:14:44.133Z,6.33
2018-12-20T22:17:14.593Z,7.47
2018-12-20T22:19:44.933Z,7.57
2018-12-20T22:22:13.908Z,7.17
2018-12-20T22:24:47.647Z,9.83
2018-12-20T22:27:21.482Z,7.47
2018-12-20T22:29:53.117Z,7.63
2018-12-20T22:32:23.880Z,6.37
2018-12-20T22:34:54.729Z,6.33
2018-12-20T22:37:31.945Z,8.20
2018-12-20T22:40:05.259Z,6.93
2018-12-20T22:42:36.309Z,8.83
2018-12-20T22:45:07.866Z,7.87
2018-12-20T22:47:38.501Z,6.83
2018-12-20T22:50:16.643Z,6.60
2018-12-20T22:52:48.388Z,7.93
2018-12-20T22:55:20.063Z,6.53
2018-12-20T22:57:51.032Z,5.50
2018-12-20T23:00:21.985Z,6.13
2018-12-20T23:02:56.302Z,6.77
2018-12-20T23:05:30.173Z,5.77
2018-12-20T23:08:04.543Z,5.70
2018-12-20T23:10:39.769Z,5.63
2018-12-20T23:13:12.880Z,6.47
2018-12-20T23:15:42.108Z,5.80
2018-12-20T23:18:13.008Z,7.30
2018-12-20T23:20:43.832Z,6.13
2018-12-20T23:23:15.404Z,5.63
2018-12-20T23:25:44.090Z,7.17
2018-12-20T23:28:15.473Z,5.30
2018-12-20T23:30:48.953Z,4.70
2018-12-20T23:33:20.046Z,6.73
2018-12-20T23:35:51.126Z,6.90
2018-12-20T23:38:28.810Z,6.20
2018-12-20T23:41:03.281Z,5.83
2018-12-20T23:43:34.244Z,5.30
2018-12-20T23:46:05.163Z,5.00
2018-12-20T23:48:34.113Z,5.17
2018-12-20T23:51:13.223Z,5.90
2018-12-20T23:53:38.331Z,5.77
2018-12-20T23:56:09.390Z,5.03
2018-12-20T23:58:46.549Z,4.87
